createdAt,value
2023-02-03T00:01:31.674Z,101590.06
2023-02-03T00:05:39.259Z,101560.56
2023-02-03T00:09:44.118Z,101567.03
2023-02-03T00:13:49.096Z,101576.28
2023-02-03T00:17:53.539Z,101565.00
2023-02-03T00:22:00.897Z,101559.53
2023-02-03T00:26:10.343Z,101556.44
2023-02-03T00:30:17.590Z,101563.09
2023-02-03T00:34:21.998Z,101559.84
2023-02-03T00:38:31.255Z,101557.47
2023-02-03T00:42:37.378Z,101552.00
2023-02-03T00:46:42.427Z,101543.47
2023-02-03T00:50:49.215Z,101553.34
2023-02-03T00:54:55.387Z,101529.44
2023-02-03T00:58:59.916Z,101561.34
2023-02-03T01:03:05.007Z,101565.97
2023-02-03T01:07:10.352Z,101564.28
2023-02-03T01:11:18.224Z,101572.16
2023-02-03T01:15:22.682Z,101574.88
2023-02-03T01:19:27.066Z,101593.13
2023-02-03T01:23:32.294Z,101599.81
2023-02-03T01:27:38.746Z,101596.41
2023-02-03T01:31:44.513Z,101587.53
2023-02-03T01:35:49.742Z,101602.72
2023-02-03T01:39:55.065Z,101614.16
2023-02-03T01:44:02.747Z,101606.63
2023-02-03T01:48:07.571Z,101615.50
2023-02-03T01:52:13.133Z,101598.75
2023-02-03T01:56:18.616Z,101600.81
2023-02-03T02:00:26.376Z,101593.28
2023-02-03T02:04:42.328Z,101593.28
2023-02-03T02:08:50.831Z,101600.44
2023-02-03T02:12:58.206Z,101592.06
2023-02-03T02:17:11.836Z,101588.50
2023-02-03T02:21:30.597Z,101586.78
2023-02-03T02:25:54.893Z,101590.88
2023-02-03T02:30:28.150Z,101558.47
2023-02-03T02:34:45.031Z,101556.41
2023-02-03T02:39:00.385Z,101549.25
2023-02-03T02:43:13.940Z,101556.03
2023-02-03T02:47:22.537Z,101548.88
2023-02-03T02:51:32.368Z,101554.81
2023-02-03T02:55:42.790Z,101575.47
2023-02-03T02:59:48.804Z,101566.25
2023-02-03T03:03:54.131Z,101564.19
2023-02-03T03:08:04.325Z,101565.22
2023-02-03T03:12:14.498Z,101541.00
2023-02-03T03:16:24.008Z,101535.91
2023-02-03T03:20:29.928Z,101544.13
2023-02-03T03:24:42.322Z,101553.00
2023-02-03T03:28:51.818Z,101551.66
2023-02-03T03:32:58.910Z,101555.09
2023-02-03T03:37:10.824Z,101559.03
2023-02-03T03:41:21.879Z,101558.91
2023-02-03T03:45:30.766Z,101564.34
2023-02-03T03:49:38.106Z,101553.44
2023-02-03T03:53:46.607Z,101555.13
2023-02-03T03:57:59.180Z,101566.88
2023-02-03T04:02:06.460Z,101563.69
2023-02-03T04:06:11.065Z,101549.66
2023-02-03T04:10:22.377Z,101529.88
2023-02-03T04:14:28.511Z,101537.41
2023-02-03T04:18:33.802Z,101541.00
2023-02-03T04:22:37.585Z,101558.22
2023-02-03T04:26:42.276Z,101537.53
2023-02-03T04:30:49.868Z,101540.09
2023-02-03T04:34:55.434Z,101538.03
2023-02-03T04:39:00.825Z,101527.13
2023-02-03T04:43:09.620Z,101542.44
2023-02-03T04:47:15.896Z,101548.56
2023-02-03T04:51:20.605Z,101537.94
2023-02-03T04:55:25.885Z,101502.75
2023-02-03T04:59:29.551Z,101519.97
2023-02-03T05:03:35.631Z,101507.19
2023-02-03T05:07:39.092Z,101509.91
2023-02-03T05:11:42.231Z,101519.81
2023-02-03T05:15:47.568Z,101527.66
2023-02-03T05:19:52.621Z,101527.66
2023-02-03T05:23:55.650Z,101526.41
2023-02-03T05:27:58.808Z,101510.41
2023-02-03T05:32:01.937Z,101516.22
2023-02-03T05:36:07.251Z,101504.94
2023-02-03T05:40:29.016Z,101507.50
2023-02-03T05:44:32.360Z,101512.97
2023-02-03T05:48:35.849Z,101514.81
2023-02-03T05:52:40.244Z,101515.69
2023-02-03T05:56:43.727Z,101527.66
2023-02-03T06:00:47.274Z,101544.50
2023-02-03T06:04:50.348Z,101532.75
2023-02-03T06:08:57.136Z,101536.16
2023-02-03T06:13:00.171Z,101545.03
2023-02-03T06:17:03.257Z,101537.84
2023-02-03T06:21:06.848Z,101542.28
2023-02-03T06:25:13.267Z,101528.31
2023-02-03T06:29:16.364Z,101536.88
2023-02-03T06:33:19.393Z,101525.44
2023-02-03T06:37:24.578Z,101546.09
2023-02-03T06:41:30.746Z,101552.94
2023-02-03T06:45:34.626Z,101539.09
2023-02-03T06:49:37.696Z,101515.06
2023-02-03T06:53:40.704Z,101539.66
2023-02-03T06:57:49.303Z,101539.28
2023-02-03T07:01:53.122Z,101512.34
2023-02-03T07:05:56.168Z,101510.28
2023-02-03T07:09:59.190Z,101523.94
2023-02-03T07:14:04.071Z,101537.72
2023-02-03T07:18:07.115Z,101522.19
2023-02-03T07:22:11.306Z,101538.56
2023-02-03T07:26:14.399Z,101534.44
2023-02-03T07:30:18.999Z,101520.78
2023-02-03T07:34:22.090Z,101531.16
2023-02-03T07:38:26.240Z,101537.00
2023-02-03T07:42:29.281Z,101541.53
2023-02-03T07:46:33.667Z,101548.41
2023-02-03T07:50:36.959Z,101551.06
2023-02-03T07:54:39.984Z,101571.03
2023-02-03T07:58:43.079Z,101559.91
2023-02-03T08:02:47.838Z,101570.63
2023-02-03T08:06:51.043Z,101572.81
2023-02-03T08:10:56.314Z,101579.63
2023-02-03T08:14:59.399Z,101551.06
2023-02-03T08:19:03.793Z,101555.50
2023-02-03T08:23:06.871Z,101560.44
2023-02-03T08:27:09.885Z,101572.03
2023-02-03T08:31:13.573Z,101571.84
2023-02-03T08:35:18.248Z,101591.66
2023-02-03T08:39:21.537Z,101588.19
2023-02-03T08:43:24.613Z,101597.25
2023-02-03T08:47:28.400Z,101596.03
2023-02-03T08:51:32.776Z,101587.66
2023-02-03T08:55:36.027Z,101598.75
2023-02-03T08:59:40.386Z,101596.28
2023-02-03T09:03:44.007Z,101614.59
2023-02-03T09:07:49.905Z,101645.56
2023-02-03T09:11:52.988Z,101646.13
2023-02-03T09:15:56.132Z,101649.25
2023-02-03T09:19:59.337Z,101662.19
2023-02-03T09:24:04.676Z,101638.75
2023-02-03T09:28:07.704Z,101645.06
2023-02-03T09:32:10.840Z,101639.97
2023-02-03T09:36:14.723Z,101639.22
2023-02-03T09:40:25.763Z,101646.25
2023-02-03T09:44:37.053Z,101631.13
2023-02-03T09:48:44.789Z,101648.19
2023-02-03T09:52:49.232Z,101635.94
2023-02-03T09:56:55.919Z,101658.13
2023-02-03T10:01:01.744Z,101668.22
2023-02-03T10:05:12.470Z,101699.47
2023-02-03T10:09:30.633Z,101705.28
2023-02-03T10:13:46.579Z,101723.41
2023-02-03T10:17:55.631Z,101721.03
2023-02-03T10:22:01.613Z,101729.91
2023-02-03T10:26:07.526Z,101733.16
2023-02-03T10:30:21.510Z,101729.91
2023-02-03T10:34:26.883Z,101724.78
2023-02-03T10:38:48.768Z,101721.91
2023-02-03T10:43:10.611Z,101729.56
2023-02-03T10:47:24.604Z,101738.44
2023-02-03T10:51:32.053Z,101716.94
2023-02-03T10:55:35.197Z,101721.69
2023-02-03T10:59:43.595Z,101712.47
2023-02-03T11:03:58.374Z,101704.59
2023-02-03T11:08:02.061Z,101712.59
2023-02-03T11:12:13.143Z,101704.88
2023-02-03T11:16:18.553Z,101702.47
2023-02-03T11:20:27.550Z,101696.31
2023-02-03T11:24:33.896Z,101679.03
2023-02-03T11:28:37.300Z,101663.66
2023-02-03T11:32:43.222Z,101665.84
2023-02-03T11:36:47.666Z,101662.06
2023-02-03T11:41:01.103Z,101675.22
2023-02-03T11:45:15.647Z,101662.91
2023-02-03T11:49:52.372Z,101658.59
2023-02-03T11:54:07.752Z,101660.59
2023-02-03T11:58:47.000Z,101656.44
2023-02-03T12:03:16.004Z,101643.44
2023-02-03T12:07:37.082Z,101655.81
2023-02-03T12:11:55.371Z,101641.97
2023-02-03T12:16:13.889Z,101651.53
2023-02-03T12:20:30.436Z,101638.16
2023-02-03T12:24:40.963Z,101645.31
2023-02-03T12:28:52.376Z,101645.66
2023-02-03T12:32:59.426Z,101651.13
2023-02-03T12:37:08.835Z,101651.97
2023-02-03T12:41:16.953Z,101647.00
2023-02-03T12:45:27.756Z,101650.41
2023-02-03T12:49:40.499Z,101660.16
2023-02-03T12:53:51.297Z,101666.81
2023-02-03T12:58:00.250Z,101665.41
2023-02-03T13:02:15.826Z,101676.06
2023-02-03T13:06:25.632Z,101666.81
2023-02-03T13:10:35.441Z,101652.94
2023-02-03T13:14:43.954Z,101672.38
2023-02-03T13:18:55.031Z,101668.16
2023-02-03T13:22:58.752Z,101670.69
2023-02-03T13:27:22.390Z,101676.16
2023-02-03T13:31:39.607Z,101686.75
2023-02-03T13:35:57.301Z,101691.38
2023-02-03T13:40:16.268Z,101654.00
2023-02-03T13:44:22.667Z,101654.59
2023-02-03T13:48:28.357Z,101660.44
2023-02-03T13:52:37.253Z,101651.03
2023-02-03T13:56:40.801Z,101662.53
2023-02-03T14:01:24.939Z,101654.16
2023-02-03T14:05:48.951Z,101666.59
2023-02-03T14:14:56.555Z,101671.47
2023-02-03T14:19:00.442Z,101666.81
2023-02-03T14:23:10.891Z,101677.03
2023-02-03T14:27:19.793Z,101673.94
2023-02-03T14:31:26.485Z,101678.06
2023-02-03T14:35:32.734Z,101668.44
2023-02-03T14:39:55.425Z,101661.94
2023-02-03T14:44:08.285Z,101653.19
2023-02-03T14:48:26.902Z,101672.44
2023-02-03T14:52:47.224Z,101667.78
2023-02-03T14:57:19.826Z,101665.72
2023-02-03T15:01:29.246Z,101685.84
2023-02-03T15:05:39.812Z,101696.03
2023-02-03T15:09:46.524Z,101709.03
2023-02-03T15:13:49.630Z,101716.47
2023-02-03T15:17:54.492Z,101721.94
2023-02-03T15:21:59.005Z,101717.13
2023-02-03T15:26:04.934Z,101723.47
2023-02-03T15:30:27.745Z,101728.91
2023-02-03T15:34:35.517Z,101732.09
2023-02-03T15:38:46.139Z,101750.59
2023-02-03T15:43:00.415Z,101743.78
2023-02-03T15:47:07.803Z,101781.13
2023-02-03T15:51:16.959Z,101778.63
2023-02-03T15:55:29.196Z,101783.78
2023-02-03T15:59:35.631Z,101800.75
2023-02-03T16:03:41.421Z,101817.50
2023-02-03T16:07:44.484Z,101836.31
2023-02-03T16:11:48.982Z,101845.22
2023-02-03T16:16:05.839Z,101861.94
2023-02-03T16:20:28.521Z,101871.84
2023-02-03T16:24:40.351Z,101900.00
2023-02-03T16:29:02.759Z,101901.38
2023-02-03T16:33:31.031Z,101901.69
2023-02-03T16:37:53.724Z,101902.56
2023-02-03T16:42:15.697Z,101892.69
2023-02-03T16:46:37.265Z,101888.41
2023-02-03T16:50:58.903Z,101890.63
2023-02-03T16:55:02.483Z,101871.00
2023-02-03T16:59:06.219Z,101867.91
2023-02-03T17:03:12.195Z,101858.88
2023-02-03T17:07:15.322Z,101862.13
2023-02-03T17:11:19.823Z,101861.94
2023-02-03T17:15:22.840Z,101858.88
2023-02-03T17:19:27.322Z,101857.34
2023-02-03T17:23:30.368Z,101863.31
2023-02-03T17:27:33.491Z,101869.09
2023-02-03T17:31:36.598Z,101867.38
2023-02-03T17:35:42.463Z,101855.97
2023-02-03T17:57:05.854Z,101897.09
2023-02-03T18:01:15.753Z,101907.16
2023-02-03T18:05:19.623Z,101911.09
2023-02-03T18:09:24.294Z,101925.94
2023-02-03T18:13:27.751Z,101921.66
2023-02-03T18:17:30.857Z,101935.50
2023-02-03T18:21:34.314Z,101941.31
2023-02-03T18:25:38.883Z,101957.50
2023-02-03T18:29:42.387Z,101961.09
2023-02-03T18:33:46.608Z,101976.63
2023-02-03T18:37:49.606Z,101990.63
2023-02-03T18:41:53.992Z,101990.63
2023-02-03T18:45:57.100Z,101998.28
2023-02-03T18:50:00.191Z,101997.47
2023-02-03T18:54:03.525Z,102000.91
2023-02-03T18:58:07.993Z,102003.28
2023-02-03T19:02:11.621Z,102012.84
2023-02-03T19:06:14.650Z,102017.28
2023-02-03T19:10:18.449Z,102016.59
2023-02-03T19:14:23.566Z,102016.97
2023-02-03T19:18:26.599Z,102010.09
2023-02-03T19:22:29.841Z,102016.94
2023-02-03T19:26:32.872Z,102029.72
2023-02-03T19:30:37.819Z,102024.59
2023-02-03T19:34:41.005Z,102022.75
2023-02-03T19:38:44.121Z,102002.28
2023-02-03T19:42:47.656Z,102007.06
2023-02-03T19:46:52.398Z,102001.63
2023-02-03T19:50:55.495Z,101999.91
2023-02-03T19:54:58.605Z,101999.03
2023-02-03T19:59:01.744Z,102006.41
2023-02-03T20:03:06.279Z,102021.09
2023-02-03T20:07:09.548Z,102004.69
2023-02-03T20:11:12.841Z,102027.91
2023-02-03T20:15:15.969Z,102042.06
2023-02-03T20:19:20.935Z,102054.69
2023-02-03T20:23:25.032Z,102060.16
2023-02-03T20:27:28.424Z,102071.63
2023-02-03T20:31:31.874Z,102065.44
2023-02-03T20:35:38.362Z,102064.94
2023-02-03T20:39:41.504Z,102065.47
2023-02-03T20:43:44.692Z,102052.28
2023-02-03T20:47:48.172Z,102037.44
2023-02-03T20:51:52.595Z,102031.44
2023-02-03T20:56:01.495Z,102036.06
2023-02-03T21:00:14.817Z,102036.41
2023-02-03T21:04:37.563Z,102039.97
2023-02-03T21:08:43.169Z,102043.22
2023-02-03T21:12:46.204Z,102061.63
2023-02-03T21:16:49.373Z,102057.38
2023-02-03T21:20:52.633Z,102059.59
2023-02-03T21:24:59.454Z,102061.78
2023-02-03T21:29:03.098Z,102053.44
2023-02-03T21:33:28.755Z,102064.19
2023-02-03T21:37:42.386Z,102058.72
2023-02-03T21:41:46.797Z,102054.78
2023-02-03T21:45:50.472Z,102065.38
2023-02-03T21:49:53.546Z,102075.59
2023-02-03T21:53:58.180Z,102082.63
2023-02-03T21:58:18.079Z,102081.34
2023-02-03T22:02:48.994Z,102083.00
2023-02-03T22:06:53.964Z,102080.94
2023-02-03T22:10:57.008Z,102092.72
2023-02-03T22:15:01.380Z,102091.13
2023-02-03T22:19:04.455Z,102098.59
2023-02-03T22:23:07.477Z,102116.63
2023-02-03T22:27:10.502Z,102118.66
2023-02-03T22:31:15.600Z,102136.50
2023-02-03T22:35:18.746Z,102132.59
2023-02-03T22:39:21.790Z,102143.66
2023-02-03T22:43:24.852Z,102130.91
2023-02-03T22:47:29.261Z,102120.69
2023-02-03T22:51:32.366Z,102118.78
2023-02-03T22:55:36.327Z,102120.13
2023-02-03T22:59:39.351Z,102124.75
2023-02-03T23:03:43.745Z,102115.22
2023-02-03T23:07:47.277Z,102124.75
2023-02-03T23:11:50.331Z,102123.03
2023-02-03T23:15:53.517Z,102129.50
2023-02-03T23:19:58.004Z,102126.47
2023-02-03T23:24:01.048Z,102132.88
2023-02-03T23:28:04.293Z,102131.75
2023-02-03T23:32:08.448Z,102137.31
2023-02-03T23:36:12.844Z,102149.78
2023-02-03T23:40:15.964Z,102171.34
2023-02-03T23:44:19.022Z,102179.69
2023-02-03T23:48:22.055Z,102190.91
2023-02-03T23:52:26.374Z,102202.97
2023-02-03T23:56:29.362Z,102200.09
